sensor_id;sensor_type;location;lat;lon;timestamp;P1;durP1;ratioP1;P2;durP2;ratioP2
18931;SDS011;9598;50.954;3.112;2024-03-08T00:03:10;25.38;;;19.80;;
18931;SDS011;9598;50.954;3.112;2024-03-08T00:08:12;26.80;;;19.35;;
18931;SDS011;9598;50.954;3.112;2024-03-08T00:13:15;25.10;;;19.52;;
18931;SDS011;9598;50.954;3.112;2024-03-08T00:18:19;29.23;;;20.02;;
18931;SDS011;9598;50.954;3.112;2024-03-08T00:23:21;24.92;;;18.50;;
18931;SDS011;9598;50.954;3.112;2024-03-08T00:28:24;23.95;;;19.58;;
18931;SDS011;9598;50.954;3.112;2024-03-08T00:33:29;23.15;;;18.23;;
18931;SDS011;9598;50.954;3.112;2024-03-08T00:38:31;24.70;;;17.77;;
18931;SDS011;9598;50.954;3.112;2024-03-08T00:43:34;23.77;;;19.92;;
18931;SDS011;9598;50.954;3.112;2024-03-08T00:48:38;24.52;;;18.08;;
18931;SDS011;9598;50.954;3.112;2024-03-08T00:53:43;24.33;;;18.40;;
18931;SDS011;9598;50.954;3.112;2024-03-08T00:58:46;24.80;;;18.35;;
18931;SDS011;9598;50.954;3.112;2024-03-08T01:03:49;22.48;;;16.80;;
18931;SDS011;9598;50.954;3.112;2024-03-08T01:08:52;28.48;;;19.00;;
18931;SDS011;9598;50.954;3.112;2024-03-08T01:13:55;24.10;;;17.75;;
18931;SDS011;9598;50.954;3.112;2024-03-08T01:18:59;26.35;;;17.52;;
18931;SDS011;9598;50.954;3.112;2024-03-08T01:24:01;23.80;;;18.20;;
18931;SDS011;9598;50.954;3.112;2024-03-08T01:29:04;25.88;;;19.10;;
18931;SDS011;9598;50.954;3.112;2024-03-08T01:34:07;24.70;;;17.75;;
18931;SDS011;9598;50.954;3.112;2024-03-08T01:39:11;23.55;;;17.00;;
18931;SDS011;9598;50.954;3.112;2024-03-08T01:44:13;23.60;;;17.83;;
18931;SDS011;9598;50.954;3.112;2024-03-08T01:49:19;24.02;;;17.33;;
18931;SDS011;9598;50.954;3.112;2024-03-08T01:54:24;24.42;;;16.52;;
18931;SDS011;9598;50.954;3.112;2024-03-08T01:59:26;24.00;;;17.05;;
18931;SDS011;9598;50.954;3.112;2024-03-08T02:04:30;22.83;;;16.92;;
18931;SDS011;9598;50.954;3.112;2024-03-08T02:09:32;24.63;;;17.80;;
18931;SDS011;9598;50.954;3.112;2024-03-08T02:14:34;24.80;;;17.27;;
18931;SDS011;9598;50.954;3.112;2024-03-08T02:19:39;27.33;;;18.20;;
18931;SDS011;9598;50.954;3.112;2024-03-08T02:24:42;24.88;;;16.50;;
18931;SDS011;9598;50.954;3.112;2024-03-08T02:29:45;23.25;;;17.38;;
18931;SDS011;9598;50.954;3.112;2024-03-08T02:34:48;27.88;;;19.80;;
18931;SDS011;9598;50.954;3.112;2024-03-08T02:39:52;28.13;;;19.58;;
18931;SDS011;9598;50.954;3.112;2024-03-08T02:44:55;23.95;;;18.95;;
18931;SDS011;9598;50.954;3.112;2024-03-08T02:49:58;31.85;;;20.58;;
18931;SDS011;9598;50.954;3.112;2024-03-08T02:55:03;25.90;;;20.40;;
18931;SDS011;9598;50.954;3.112;2024-03-08T03:00:08;33.00;;;22.48;;
18931;SDS011;9598;50.954;3.112;2024-03-08T03:05:10;27.88;;;20.15;;
18931;SDS011;9598;50.954;3.112;2024-03-08T03:10:15;31.67;;;22.02;;
18931;SDS011;9598;50.954;3.112;2024-03-08T03:15:19;30.23;;;21.13;;
18931;SDS011;9598;50.954;3.112;2024-03-08T03:20:22;32.38;;;22.45;;
18931;SDS011;9598;50.954;3.112;2024-03-08T03:25:28;32.97;;;21.83;;
18931;SDS011;9598;50.954;3.112;2024-03-08T03:30:34;34.67;;;23.33;;
18931;SDS011;9598;50.954;3.112;2024-03-08T03:35:37;33.45;;;22.70;;
18931;SDS011;9598;50.954;3.112;2024-03-08T03:40:43;31.38;;;22.77;;
18931;SDS011;9598;50.954;3.112;2024-03-08T03:45:46;34.50;;;22.75;;
18931;SDS011;9598;50.954;3.112;2024-03-08T03:50:49;33.28;;;24.25;;
18931;SDS011;9598;50.954;3.112;2024-03-08T03:55:52;32.15;;;21.00;;
18931;SDS011;9598;50.954;3.112;2024-03-08T04:00:54;37.17;;;23.35;;
18931;SDS011;9598;50.954;3.112;2024-03-08T04:05:57;31.17;;;22.27;;
18931;SDS011;9598;50.954;3.112;2024-03-08T04:11:01;32.25;;;22.17;;
18931;SDS011;9598;50.954;3.112;2024-03-08T04:16:04;36.15;;;24.20;;
18931;SDS011;9598;50.954;3.112;2024-03-08T04:21:08;34.33;;;23.02;;
18931;SDS011;9598;50.954;3.112;2024-03-08T04:26:12;30.48;;;23.60;;
18931;SDS011;9598;50.954;3.112;2024-03-08T04:31:15;30.65;;;21.42;;
18931;SDS011;9598;50.954;3.112;2024-03-08T04:36:17;31.67;;;24.08;;
18931;SDS011;9598;50.954;3.112;2024-03-08T04:41:21;34.20;;;23.40;;
18931;SDS011;9598;50.954;3.112;2024-03-08T04:46:23;36.10;;;23.50;;
18931;SDS011;9598;50.954;3.112;2024-03-08T04:51:25;34.22;;;23.63;;
18931;SDS011;9598;50.954;3.112;2024-03-08T04:56:30;33.53;;;22.95;;
18931;SDS011;9598;50.954;3.112;2024-03-08T05:01:32;33.25;;;24.55;;
18931;SDS011;9598;50.954;3.112;2024-03-08T05:06:34;33.97;;;24.88;;
18931;SDS011;9598;50.954;3.112;2024-03-08T05:11:38;30.85;;;23.90;;
18931;SDS011;9598;50.954;3.112;2024-03-08T05:16:40;32.50;;;24.35;;
18931;SDS011;9598;50.954;3.112;2024-03-08T05:21:42;32.20;;;23.25;;
18931;SDS011;9598;50.954;3.112;2024-03-08T05:26:46;32.20;;;24.58;;
18931;SDS011;9598;50.954;3.112;2024-03-08T05:31:49;26.20;;;22.02;;
18931;SDS011;9598;50.954;3.112;2024-03-08T05:36:53;32.47;;;23.83;;
18931;SDS011;9598;50.954;3.112;2024-03-08T05:41:56;31.77;;;22.42;;
18931;SDS011;9598;50.954;3.112;2024-03-08T05:46:59;35.67;;;25.40;;
18931;SDS011;9598;50.954;3.112;2024-03-08T05:52:01;32.00;;;23.85;;
18931;SDS011;9598;50.954;3.112;2024-03-08T05:57:06;34.92;;;25.85;;
18931;SDS011;9598;50.954;3.112;2024-03-08T06:02:08;30.52;;;23.85;;
18931;SDS011;9598;50.954;3.112;2024-03-08T06:07:10;35.17;;;26.63;;
18931;SDS011;9598;50.954;3.112;2024-03-08T06:12:14;32.08;;;24.23;;
18931;SDS011;9598;50.954;3.112;2024-03-08T06:17:19;33.08;;;25.35;;
18931;SDS011;9598;50.954;3.112;2024-03-08T06:22:25;34.70;;;26.08;;
18931;SDS011;9598;50.954;3.112;2024-03-08T06:27:29;36.13;;;25.67;;
18931;SDS011;9598;50.954;3.112;2024-03-08T06:32:34;30.20;;;23.50;;
18931;SDS011;9598;50.954;3.112;2024-03-08T06:37:36;30.38;;;24.67;;
18931;SDS011;9598;50.954;3.112;2024-03-08T06:42:39;33.88;;;25.45;;
18931;SDS011;9598;50.954;3.112;2024-03-08T06:47:42;32.55;;;24.17;;
18931;SDS011;9598;50.954;3.112;2024-03-08T06:52:44;33.67;;;25.38;;
18931;SDS011;9598;50.954;3.112;2024-03-08T06:57:52;31.77;;;24.55;;
18931;SDS011;9598;50.954;3.112;2024-03-08T07:02:55;31.05;;;22.92;;
18931;SDS011;9598;50.954;3.112;2024-03-08T07:08:01;34.08;;;25.40;;
18931;SDS011;9598;50.954;3.112;2024-03-08T07:13:05;37.85;;;25.08;;
18931;SDS011;9598;50.954;3.112;2024-03-08T07:18:07;30.88;;;25.02;;
18931;SDS011;9598;50.954;3.112;2024-03-08T07:23:14;30.50;;;23.88;;
18931;SDS011;9598;50.954;3.112;2024-03-08T07:28:38;33.70;;;23.60;;
18931;SDS011;9598;50.954;3.112;2024-03-08T07:33:40;32.75;;;24.02;;
18931;SDS011;9598;50.954;3.112;2024-03-08T07:38:43;28.67;;;23.60;;
18931;SDS011;9598;50.954;3.112;2024-03-08T07:43:48;30.52;;;24.48;;
18931;SDS011;9598;50.954;3.112;2024-03-08T07:48:50;33.13;;;22.80;;
18931;SDS011;9598;50.954;3.112;2024-03-08T07:53:53;30.75;;;22.75;;
18931;SDS011;9598;50.954;3.112;2024-03-08T07:58:57;30.38;;;22.23;;
18931;SDS011;9598;50.954;3.112;2024-03-08T08:03:59;27.88;;;19.95;;
18931;SDS011;9598;50.954;3.112;2024-03-08T08:09:02;31.70;;;23.17;;
18931;SDS011;9598;50.954;3.112;2024-03-08T08:14:07;30.95;;;23.20;;
18931;SDS011;9598;50.954;3.112;2024-03-08T08:19:09;32.65;;;23.13;;
18931;SDS011;9598;50.954;3.112;2024-03-08T08:24:12;28.50;;;22.25;;
18931;SDS011;9598;50.954;3.112;2024-03-08T08:29:16;28.88;;;22.42;;
18931;SDS011;9598;50.954;3.112;2024-03-08T08:34:18;28.45;;;19.10;;
18931;SDS011;9598;50.954;3.112;2024-03-08T08:39:24;27.30;;;20.13;;
18931;SDS011;9598;50.954;3.112;2024-03-08T08:44:27;29.45;;;21.30;;
18931;SDS011;9598;50.954;3.112;2024-03-08T08:49:31;30.95;;;22.63;;
18931;SDS011;9598;50.954;3.112;2024-03-08T08:54:33;27.25;;;21.67;;
18931;SDS011;9598;50.954;3.112;2024-03-08T08:59:38;31.63;;;21.15;;
18931;SDS011;9598;50.954;3.112;2024-03-08T09:04:40;26.58;;;21.88;;
18931;SDS011;9598;50.954;3.112;2024-03-08T09:09:43;27.10;;;21.45;;
18931;SDS011;9598;50.954;3.112;2024-03-08T09:14:48;21.77;;;15.63;;
18931;SDS011;9598;50.954;3.112;2024-03-08T09:19:50;29.77;;;20.45;;
18931;SDS011;9598;50.954;3.112;2024-03-08T09:24:53;30.20;;;22.20;;
18931;SDS011;9598;50.954;3.112;2024-03-08T09:29:56;27.52;;;21.27;;
18931;SDS011;9598;50.954;3.112;2024-03-08T09:34:59;22.17;;;17.10;;
18931;SDS011;9598;50.954;3.112;2024-03-08T09:40:02;27.27;;;21.10;;
18931;SDS011;9598;50.954;3.112;2024-03-08T09:45:11;25.92;;;18.60;;
18931;SDS011;9598;50.954;3.112;2024-03-08T09:50:15;28.17;;;21.27;;
18931;SDS011;9598;50.954;3.112;2024-03-08T09:55:20;28.77;;;21.88;;
18931;SDS011;9598;50.954;3.112;2024-03-08T10:00:25;30.75;;;22.58;;
18931;SDS011;9598;50.954;3.112;2024-03-08T10:05:27;25.58;;;19.77;;
18931;SDS011;9598;50.954;3.112;2024-03-08T10:10:29;28.45;;;22.02;;
18931;SDS011;9598;50.954;3.112;2024-03-08T10:15:33;23.88;;;18.02;;
18931;SDS011;9598;50.954;3.112;2024-03-08T10:20:36;28.30;;;21.20;;
18931;SDS011;9598;50.954;3.112;2024-03-08T10:25:38;26.73;;;20.75;;
18931;SDS011;9598;50.954;3.112;2024-03-08T10:30:47;24.92;;;20.77;;
18931;SDS011;9598;50.954;3.112;2024-03-08T10:35:50;28.63;;;20.67;;
18931;SDS011;9598;50.954;3.112;2024-03-08T10:40:52;21.73;;;16.83;;
18931;SDS011;9598;50.954;3.112;2024-03-08T10:45:59;20.67;;;18.08;;
18931;SDS011;9598;50.954;3.112;2024-03-08T10:51:11;25.20;;;20.73;;
18931;SDS011;9598;50.954;3.112;2024-03-08T10:56:14;26.13;;;19.65;;
18931;SDS011;9598;50.954;3.112;2024-03-08T11:01:18;23.17;;;17.88;;
18931;SDS011;9598;50.954;3.112;2024-03-08T11:06:21;25.50;;;20.70;;
18931;SDS011;9598;50.954;3.112;2024-03-08T11:11:32;25.42;;;19.85;;
18931;SDS011;9598;50.954;3.112;2024-03-08T11:16:40;25.42;;;19.17;;
18931;SDS011;9598;50.954;3.112;2024-03-08T11:21:46;25.88;;;20.65;;
18931;SDS011;9598;50.954;3.112;2024-03-08T11:26:48;25.45;;;18.02;;
18931;SDS011;9598;50.954;3.112;2024-03-08T11:31:52;22.15;;;18.38;;
18931;SDS011;9598;50.954;3.112;2024-03-08T11:37:06;23.63;;;19.15;;
18931;SDS011;9598;50.954;3.112;2024-03-08T11:42:13;22.45;;;19.08;;
18931;SDS011;9598;50.954;3.112;2024-03-08T11:47:17;21.77;;;17.95;;
18931;SDS011;9598;50.954;3.112;2024-03-08T11:52:21;20.52;;;16.38;;
18931;SDS011;9598;50.954;3.112;2024-03-08T11:57:27;24.65;;;18.98;;
18931;SDS011;9598;50.954;3.112;2024-03-08T12:02:31;21.73;;;18.98;;
18931;SDS011;9598;50.954;3.112;2024-03-08T12:07:35;21.65;;;16.98;;
18931;SDS011;9598;50.954;3.112;2024-03-08T12:12:39;21.80;;;18.50;;
18931;SDS011;9598;50.954;3.112;2024-03-08T12:17:43;22.85;;;18.77;;
18931;SDS011;9598;50.954;3.112;2024-03-08T12:22:48;21.98;;;17.73;;
18931;SDS011;9598;50.954;3.112;2024-03-08T12:27:52;23.52;;;19.08;;
18931;SDS011;9598;50.954;3.112;2024-03-08T12:33:00;24.40;;;19.13;;
18931;SDS011;9598;50.954;3.112;2024-03-08T12:38:02;22.83;;;19.23;;
18931;SDS011;9598;50.954;3.112;2024-03-08T12:43:06;24.67;;;19.17;;
18931;SDS011;9598;50.954;3.112;2024-03-08T12:48:13;21.10;;;18.60;;
18931;SDS011;9598;50.954;3.112;2024-03-08T12:53:16;20.02;;;15.93;;
18931;SDS011;9598;50.954;3.112;2024-03-08T12:58:18;22.80;;;17.38;;
18931;SDS011;9598;50.954;3.112;2024-03-08T13:03:23;21.08;;;17.40;;
18931;SDS011;9598;50.954;3.112;2024-03-08T13:08:25;17.73;;;14.63;;
18931;SDS011;9598;50.954;3.112;2024-03-08T13:13:29;20.95;;;17.75;;
18931;SDS011;9598;50.954;3.112;2024-03-08T13:18:37;21.75;;;18.20;;
18931;SDS011;9598;50.954;3.112;2024-03-08T13:23:40;20.08;;;15.75;;
18931;SDS011;9598;50.954;3.112;2024-03-08T13:28:45;21.38;;;17.85;;
18931;SDS011;9598;50.954;3.112;2024-03-08T13:33:50;22.13;;;17.10;;
18931;SDS011;9598;50.954;3.112;2024-03-08T13:38:58;22.17;;;16.92;;
18931;SDS011;9598;50.954;3.112;2024-03-08T13:44:00;19.45;;;16.80;;
18931;SDS011;9598;50.954;3.112;2024-03-08T13:49:05;24.13;;;18.40;;
18931;SDS011;9598;50.954;3.112;2024-03-08T13:54:10;21.73;;;17.10;;
18931;SDS011;9598;50.954;3.112;2024-03-08T13:59:12;19.85;;;16.67;;
18931;SDS011;9598;50.954;3.112;2024-03-08T14:04:15;23.17;;;18.20;;
18931;SDS011;9598;50.954;3.112;2024-03-08T14:09:18;22.65;;;17.00;;
18931;SDS011;9598;50.954;3.112;2024-03-08T14:14:22;19.25;;;15.48;;
18931;SDS011;9598;50.954;3.112;2024-03-08T14:19:26;19.50;;;17.13;;
18931;SDS011;9598;50.954;3.112;2024-03-08T14:24:28;19.50;;;17.25;;
18931;SDS011;9598;50.954;3.112;2024-03-08T14:29:30;19.88;;;15.85;;
18931;SDS011;9598;50.954;3.112;2024-03-08T14:34:34;17.38;;;15.15;;
18931;SDS011;9598;50.954;3.112;2024-03-08T14:39:36;17.70;;;15.82;;
18931;SDS011;9598;50.954;3.112;2024-03-08T14:44:39;20.85;;;18.00;;
18931;SDS011;9598;50.954;3.112;2024-03-08T14:49:42;17.65;;;15.63;;
18931;SDS011;9598;50.954;3.112;2024-03-08T14:54:44;18.35;;;15.43;;
18931;SDS011;9598;50.954;3.112;2024-03-08T14:59:49;19.35;;;16.15;;
18931;SDS011;9598;50.954;3.112;2024-03-08T15:04:53;19.58;;;15.02;;
18931;SDS011;9598;50.954;3.112;2024-03-08T15:09:58;19.38;;;17.17;;
18931;SDS011;9598;50.954;3.112;2024-03-08T15:15:01;19.08;;;17.05;;
18931;SDS011;9598;50.954;3.112;2024-03-08T15:20:10;18.45;;;16.55;;
18931;SDS011;9598;50.954;3.112;2024-03-08T15:25:16;20.00;;;15.80;;
18931;SDS011;9598;50.954;3.112;2024-03-08T15:30:21;18.17;;;15.93;;
18931;SDS011;9598;50.954;3.112;2024-03-08T15:35:28;19.60;;;17.02;;
18931;SDS011;9598;50.954;3.112;2024-03-08T15:40:32;21.80;;;14.88;;
18931;SDS011;9598;50.954;3.112;2024-03-08T15:45:35;21.83;;;19.52;;
18931;SDS011;9598;50.954;3.112;2024-03-08T15:50:39;18.55;;;16.30;;
18931;SDS011;9598;50.954;3.112;2024-03-08T15:55:42;19.52;;;16.17;;
18931;SDS011;9598;50.954;3.112;2024-03-08T16:00:47;19.90;;;16.02;;
18931;SDS011;9598;50.954;3.112;2024-03-08T16:05:50;18.88;;;15.75;;
18931;SDS011;9598;50.954;3.112;2024-03-08T16:10:54;18.52;;;15.52;;
18931;SDS011;9598;50.954;3.112;2024-03-08T16:15:57;19.58;;;17.20;;
18931;SDS011;9598;50.954;3.112;2024-03-08T16:21:00;18.27;;;14.90;;
18931;SDS011;9598;50.954;3.112;2024-03-08T16:26:04;29.10;;;26.00;;
18931;SDS011;9598;50.954;3.112;2024-03-08T16:31:09;25.80;;;20.98;;
18931;SDS011;9598;50.954;3.112;2024-03-08T16:36:16;22.35;;;18.30;;
18931;SDS011;9598;50.954;3.112;2024-03-08T16:41:18;18.58;;;15.68;;
18931;SDS011;9598;50.954;3.112;2024-03-08T16:46:22;19.35;;;15.13;;
18931;SDS011;9598;50.954;3.112;2024-03-08T16:51:25;21.52;;;19.17;;
18931;SDS011;9598;50.954;3.112;2024-03-08T16:56:28;39.97;;;31.73;;
18931;SDS011;9598;50.954;3.112;2024-03-08T17:01:31;21.42;;;17.77;;
18931;SDS011;9598;50.954;3.112;2024-03-08T17:06:35;21.73;;;17.25;;
18931;SDS011;9598;50.954;3.112;2024-03-08T17:11:38;19.58;;;16.95;;
18931;SDS011;9598;50.954;3.112;2024-03-08T17:16:40;24.80;;;19.80;;
18931;SDS011;9598;50.954;3.112;2024-03-08T17:21:44;20.05;;;16.90;;
18931;SDS011;9598;50.954;3.112;2024-03-08T17:26:46;19.92;;;15.95;;
18931;SDS011;9598;50.954;3.112;2024-03-08T17:31:48;20.13;;;15.45;;
18931;SDS011;9598;50.954;3.112;2024-03-08T17:36:52;19.20;;;15.38;;
18931;SDS011;9598;50.954;3.112;2024-03-08T17:42:00;18.55;;;15.73;;
18931;SDS011;9598;50.954;3.112;2024-03-08T17:47:03;20.05;;;15.80;;
18931;SDS011;9598;50.954;3.112;2024-03-08T17:52:07;18.10;;;15.07;;
18931;SDS011;9598;50.954;3.112;2024-03-08T17:57:09;21.58;;;16.50;;
18931;SDS011;9598;50.954;3.112;2024-03-08T18:02:11;20.45;;;17.02;;
18931;SDS011;9598;50.954;3.112;2024-03-08T18:07:15;21.20;;;17.08;;
18931;SDS011;9598;50.954;3.112;2024-03-08T18:12:17;19.15;;;15.80;;
18931;SDS011;9598;50.954;3.112;2024-03-08T18:17:20;21.67;;;16.77;;
18931;SDS011;9598;50.954;3.112;2024-03-08T18:22:24;21.95;;;16.98;;
18931;SDS011;9598;50.954;3.112;2024-03-08T18:27:26;20.20;;;17.17;;
18931;SDS011;9598;50.954;3.112;2024-03-08T18:32:29;19.80;;;15.30;;
18931;SDS011;9598;50.954;3.112;2024-03-08T18:37:32;19.80;;;16.27;;
18931;SDS011;9598;50.954;3.112;2024-03-08T18:42:35;19.98;;;16.40;;
18931;SDS011;9598;50.954;3.112;2024-03-08T18:47:39;22.15;;;17.40;;
18931;SDS011;9598;50.954;3.112;2024-03-08T18:52:43;21.77;;;17.65;;
18931;SDS011;9598;50.954;3.112;2024-03-08T18:57:49;20.42;;;17.13;;
18931;SDS011;9598;50.954;3.112;2024-03-08T19:02:53;22.42;;;16.45;;
18931;SDS011;9598;50.954;3.112;2024-03-08T19:07:58;23.25;;;17.13;;
18931;SDS011;9598;50.954;3.112;2024-03-08T19:13:07;21.75;;;15.52;;
18931;SDS011;9598;50.954;3.112;2024-03-08T19:18:12;21.95;;;17.40;;
18931;SDS011;9598;50.954;3.112;2024-03-08T19:23:16;21.73;;;15.73;;
18931;SDS011;9598;50.954;3.112;2024-03-08T19:28:18;21.95;;;17.35;;
18931;SDS011;9598;50.954;3.112;2024-03-08T19:33:22;21.67;;;17.73;;
18931;SDS011;9598;50.954;3.112;2024-03-08T19:38:26;20.23;;;17.45;;
18931;SDS011;9598;50.954;3.112;2024-03-08T19:43:32;19.52;;;16.08;;
18931;SDS011;9598;50.954;3.112;2024-03-08T19:48:34;18.58;;;15.73;;
18931;SDS011;9598;50.954;3.112;2024-03-08T19:53:38;22.30;;;16.27;;
18931;SDS011;9598;50.954;3.112;2024-03-08T19:58:40;18.60;;;16.15;;
18931;SDS011;9598;50.954;3.112;2024-03-08T20:03:43;20.80;;;16.73;;
18931;SDS011;9598;50.954;3.112;2024-03-08T20:08:47;19.40;;;16.50;;
18931;SDS011;9598;50.954;3.112;2024-03-08T20:13:49;21.23;;;15.90;;
18931;SDS011;9598;50.954;3.112;2024-03-08T20:18:52;19.67;;;15.90;;
18931;SDS011;9598;50.954;3.112;2024-03-08T20:23:55;16.77;;;14.98;;
18931;SDS011;9598;50.954;3.112;2024-03-08T20:28:58;19.70;;;15.18;;
18931;SDS011;9598;50.954;3.112;2024-03-08T20:34:01;20.50;;;16.35;;
18931;SDS011;9598;50.954;3.112;2024-03-08T20:39:05;19.30;;;15.23;;
18931;SDS011;9598;50.954;3.112;2024-03-08T20:44:08;20.80;;;16.17;;
18931;SDS011;9598;50.954;3.112;2024-03-08T20:49:11;19.33;;;14.73;;
18931;SDS011;9598;50.954;3.112;2024-03-08T20:54:16;19.05;;;15.30;;
18931;SDS011;9598;50.954;3.112;2024-03-08T20:59:18;20.40;;;16.05;;
18931;SDS011;9598;50.954;3.112;2024-03-08T21:04:21;18.85;;;15.30;;
18931;SDS011;9598;50.954;3.112;2024-03-08T21:09:25;19.52;;;14.95;;
18931;SDS011;9598;50.954;3.112;2024-03-08T21:14:31;20.58;;;16.30;;
18931;SDS011;9598;50.954;3.112;2024-03-08T21:19:33;18.65;;;15.13;;
18931;SDS011;9598;50.954;3.112;2024-03-08T21:24:37;20.10;;;16.23;;
18931;SDS011;9598;50.954;3.112;2024-03-08T21:29:39;19.63;;;14.60;;
18931;SDS011;9598;50.954;3.112;2024-03-08T21:34:42;18.92;;;15.40;;
18931;SDS011;9598;50.954;3.112;2024-03-08T21:39:45;15.95;;;13.55;;
18931;SDS011;9598;50.954;3.112;2024-03-08T21:44:48;18.63;;;14.65;;
18931;SDS011;9598;50.954;3.112;2024-03-08T21:49:50;16.55;;;12.57;;
18931;SDS011;9598;50.954;3.112;2024-03-08T21:54:56;19.65;;;15.48;;
18931;SDS011;9598;50.954;3.112;2024-03-08T21:59:59;21.88;;;16.98;;
18931;SDS011;9598;50.954;3.112;2024-03-08T22:05:01;22.67;;;17.83;;
18931;SDS011;9598;50.954;3.112;2024-03-08T22:10:05;20.95;;;16.40;;
18931;SDS011;9598;50.954;3.112;2024-03-08T22:15:08;20.35;;;16.08;;
18931;SDS011;9598;50.954;3.112;2024-03-08T22:20:11;21.67;;;17.35;;
18931;SDS011;9598;50.954;3.112;2024-03-08T22:25:20;20.92;;;17.00;;
18931;SDS011;9598;50.954;3.112;2024-03-08T22:30:23;20.63;;;17.35;;
18931;SDS011;9598;50.954;3.112;2024-03-08T22:35:26;20.80;;;17.70;;
18931;SDS011;9598;50.954;3.112;2024-03-08T22:40:29;21.13;;;17.17;;
18931;SDS011;9598;50.954;3.112;2024-03-08T22:45:32;21.75;;;17.58;;
18931;SDS011;9598;50.954;3.112;2024-03-08T22:50:34;22.27;;;17.67;;
18931;SDS011;9598;50.954;3.112;2024-03-08T22:55:39;18.80;;;16.02;;
18931;SDS011;9598;50.954;3.112;2024-03-08T23:00:41;21.15;;;16.65;;
18931;SDS011;9598;50.954;3.112;2024-03-08T23:05:56;21.80;;;17.38;;
18931;SDS011;9598;50.954;3.112;2024-03-08T23:11:00;18.02;;;14.52;;
18931;SDS011;9598;50.954;3.112;2024-03-08T23:16:04;17.92;;;15.57;;
18931;SDS011;9598;50.954;3.112;2024-03-08T23:21:07;16.65;;;13.73;;
18931;SDS011;9598;50.954;3.112;2024-03-08T23:26:11;18.98;;;14.82;;
18931;SDS011;9598;50.954;3.112;2024-03-08T23:31:15;19.05;;;16.08;;
18931;SDS011;9598;50.954;3.112;2024-03-08T23:36:18;19.83;;;15.98;;
18931;SDS011;9598;50.954;3.112;2024-03-08T23:41:21;19.13;;;14.85;;
18931;SDS011;9598;50.954;3.112;2024-03-08T23:46:24;19.08;;;14.98;;
18931;SDS011;9598;50.954;3.112;2024-03-08T23:51:27;18.35;;;15.02;;
18931;SDS011;9598;50.954;3.112;2024-03-08T23:56:32;16.98;;;15.07;;
